Time;durP1;ratioP1;P1;durP2;ratioP2;P2;SDS_P1;SDS_P2;PMS_P1;PMS_P2;Temp;Humidity;BMP_temperature;BMP_pressure;BME280_temperature;BME280_humidity;BME280_pressure;Samples;Min_cycle;Max_cycle;Signal;HPM_P1;HPM_P2
2022/08/31 00:04:44;;;;;;;3.45;1.17;;;15.60;99.90;;;;;;5044840;28;20086;-73
2022/08/31 00:07:10;;;;;;;2.20;0.85;;;15.60;99.90;;;;;;5026046;28;20033;-72
2022/08/31 00:09:36;;;;;;;3.17;1.10;;;15.60;99.90;;;;;;5013856;28;20044;-73
2022/08/31 00:12:02;;;;;;;2.55;1.02;;;15.50;99.90;;;;;;5018033;28;20037;-73
2022/08/31 00:14:28;;;;;;;2.88;0.90;;;15.50;99.90;;;;;;5025336;28;20121;-71
2022/08/31 00:16:54;;;;;;;0.98;0.70;;;15.50;99.90;;;;;;5019787;28;20115;-73
2022/08/31 00:19:20;;;;;;;3.28;0.88;;;15.50;99.90;;;;;;5010588;28;20061;-73
2022/08/31 00:21:46;;;;;;;2.97;1.00;;;15.00;99.90;;;;;;5011417;28;20061;-72
2022/08/31 00:24:13;;;;;;;4.10;1.08;;;15.40;99.90;;;;;;5010820;28;20045;-73
2022/08/31 00:26:39;;;;;;;4.45;0.98;;;15.40;99.90;;;;;;5028720;28;20036;-73
2022/08/31 00:29:05;;;;;;;2.03;0.90;;;15.30;99.90;;;;;;5023065;28;20506;-73
2022/08/31 00:31:41;;;;;;;2.17;0.93;;;15.30;99.90;;;;;;5007447;28;20037;-74
2022/08/31 00:34:08;;;;;;;3.47;1.13;;;15.30;99.90;;;;;;5028792;28;20049;-72
2022/08/31 00:36:33;;;;;;;2.58;0.90;;;15.30;99.90;;;;;;5027845;28;20040;-71
2022/08/31 00:38:59;;;;;;;1.63;0.85;;;15.20;99.90;;;;;;5029345;28;20037;-73
2022/08/31 00:41:28;;;;;;;2.78;1.00;;;15.20;99.90;;;;;;5013210;28;20128;-73
2022/08/31 00:44:00;;;;;;;2.30;0.80;;;15.20;99.90;;;;;;5057868;28;20049;-72
2022/08/31 00:46:29;;;;;;;2.75;0.85;;;15.20;99.90;;;;;;5014305;28;20507;-71
2022/08/31 00:49:01;;;;;;;3.00;1.00;;;15.10;99.90;;;;;;5027409;28;20100;-73
2022/08/31 00:51:29;;;;;;;1.60;0.98;;;15.10;99.90;;;;;;5027915;28;20080;-71
2022/08/31 00:53:55;;;;;;;4.05;1.20;;;15.00;99.90;;;;;;5023656;28;20057;-74
2022/08/31 00:56:21;;;;;;;1.58;0.75;;;15.00;99.90;;;;;;5064122;28;21083;-73
2022/08/31 00:58:49;;;;;;;1.63;0.73;;;15.00;99.90;;;;;;5045832;28;20467;-74
2022/08/31 01:01:18;;;;;;;1.30;0.77;;;14.90;99.90;;;;;;5047426;28;20036;-72
2022/08/31 01:03:46;;;;;;;4.70;1.80;;;14.90;99.90;;;;;;4994065;28;20041;-73
2022/08/31 01:06:12;;;;;;;2.20;1.00;;;14.80;99.90;;;;;;5013906;28;20033;-73
2022/08/31 01:08:38;;;;;;;2.35;1.10;;;14.80;99.90;;;;;;5029603;28;20198;-72
2022/08/31 01:11:05;;;;;;;0.88;0.73;;;14.70;99.90;;;;;;4996647;28;20507;-73
2022/08/31 01:13:31;;;;;;;1.48;0.90;;;14.70;99.90;;;;;;5046626;28;20111;-72
2022/08/31 01:16:02;;;;;;;2.35;1.05;;;14.70;99.90;;;;;;4996236;28;20072;-72
2022/08/31 01:18:29;;;;;;;3.10;1.05;;;14.60;99.90;;;;;;5013043;28;20396;-73
2022/08/31 01:21:01;;;;;;;3.25;1.20;;;14.60;99.90;;;;;;5030094;28;20251;-73
2022/08/31 01:23:37;;;;;;;2.65;1.08;;;14.50;99.90;;;;;;5030308;28;20124;-73
2022/08/31 01:26:05;;;;;;;3.30;1.10;;;14.50;99.90;;;;;;5064422;28;20418;-73
2022/08/31 01:28:31;;;;;;;2.70;1.08;;;14.40;99.90;;;;;;5045940;28;20423;-74
2022/08/31 01:31:06;;;;;;;4.38;1.20;;;14.40;99.90;;;;;;5046778;28;20049;-71
2022/08/31 01:33:34;;;;;;;3.00;1.40;;;14.40;99.90;;;;;;5026632;28;20559;-73
2022/08/31 01:36:00;;;;;;;3.50;1.50;;;14.30;99.90;;;;;;5012902;28;20119;-73
2022/08/31 01:38:27;;;;;;;2.33;1.17;;;14.30;99.90;;;;;;4995223;28;20111;-72
2022/08/31 01:40:55;;;;;;;3.50;1.40;;;14.20;99.90;;;;;;5014498;28;20037;-73
2022/08/31 01:43:21;;;;;;;5.05;1.40;;;14.20;99.90;;;;;;5032432;28;20043;-74
2022/08/31 01:45:47;;;;;;;2.38;1.10;;;;;;;;;;5031884;28;20056;-74
2022/08/31 01:48:14;;;;;;;2.63;1.20;;;14.10;99.90;;;;;;5033783;28;20093;-72
2022/08/31 01:50:39;;;;;;;3.13;1.35;;;14.10;99.90;;;;;;5031194;28;20458;-72
2022/08/31 01:53:05;;;;;;;3.50;1.38;;;14.00;99.90;;;;;;5031770;28;20047;-73
2022/08/31 01:55:31;;;;;;;2.40;1.10;;;14.00;99.90;;;;;;5031192;28;20148;-74
2022/08/31 01:57:58;;;;;;;3.20;1.15;;;13.90;99.90;;;;;;5016405;28;20044;-72
2022/08/31 02:00:27;;;;;;;2.97;1.30;;;13.90;99.90;;;;;;5032759;28;20028;-73
2022/08/31 02:02:54;;;;;;;2.85;1.13;;;13.90;99.90;;;;;;5047590;28;20036;-72
2022/08/31 02:05:20;;;;;;;3.50;1.35;;;13.80;99.90;;;;;;5031181;28;22072;-73
2022/08/31 02:07:46;;;;;;;2.75;1.20;;;13.80;99.90;;;;;;5033643;28;20120;-71
2022/08/31 02:10:12;;;;;;;3.50;1.20;;;13.80;99.90;;;;;;5008122;28;20124;-73
2022/08/31 02:12:37;;;;;;;3.38;1.27;;;13.70;99.90;;;;;;5033181;28;20269;-72
2022/08/31 02:15:04;;;;;;;2.90;1.27;;;13.70;99.90;;;;;;5004574;28;20034;-73
2022/08/31 02:17:30;;;;;;;5.03;1.30;;;13.70;99.90;;;;;;5051117;28;20275;-73
2022/08/31 02:19:55;;;;;;;2.58;1.20;;;13.60;99.90;;;;;;5014879;28;20730;-72
2022/08/31 02:22:21;;;;;;;2.75;1.00;;;13.60;99.90;;;;;;5015869;28;20119;-73
2022/08/31 02:24:47;;;;;;;2.22;0.98;;;13.60;99.90;;;;;;5014726;28;20407;-72
2022/08/31 02:27:13;;;;;;;1.92;1.02;;;13.60;99.90;;;;;;5050203;28;20044;-74
2022/08/31 02:29:38;;;;;;;2.65;1.20;;;13.50;99.90;;;;;;5022205;28;20550;-71
2022/08/31 02:32:04;;;;;;;3.10;1.23;;;13.50;99.90;;;;;;5033812;28;20067;-75
2022/08/31 02:34:30;;;;;;;1.92;1.13;;;13.50;99.90;;;;;;5038857;28;20055;-72
2022/08/31 02:36:56;;;;;;;3.80;1.20;;;13.40;99.90;;;;;;5049594;28;20036;-74
2022/08/31 02:39:22;;;;;;;2.63;1.25;;;13.40;99.90;;;;;;5016321;28;20037;-73
2022/08/31 02:41:47;;;;;;;2.90;1.33;;;13.40;99.90;;;;;;5031920;28;20036;-72
2022/08/31 02:44:13;;;;;;;2.97;1.08;;;13.40;99.90;;;;;;5028994;28;20036;-73
2022/08/31 02:46:39;;;;;;;2.85;1.20;;;13.40;99.90;;;;;;5034810;28;20043;-73
2022/08/31 02:49:05;;;;;;;2.97;1.40;;;13.30;99.90;;;;;;5036821;28;20040;-71
2022/08/31 02:51:31;;;;;;;3.92;1.20;;;13.30;99.90;;;;;;5032220;28;20094;-73
2022/08/31 02:53:57;;;;;;;3.00;1.20;;;13.30;99.90;;;;;;5032993;28;20045;-75
2022/08/31 02:56:22;;;;;;;4.15;1.20;;;13.30;99.90;;;;;;5016409;28;20475;-72
2022/08/31 02:58:53;;;;;;;2.45;1.20;;;13.30;99.90;;;;;;5049495;28;20085;-73
2022/08/31 03:01:22;;;;;;;3.03;1.20;;;13.20;99.90;;;;;;5029391;28;20484;-74
2022/08/31 03:03:49;;;;;;;3.97;1.42;;;13.20;99.90;;;;;;5030001;28;20047;-74
2022/08/31 03:06:16;;;;;;;4.07;1.40;;;13.20;99.90;;;;;;5066015;28;20121;-72
2022/08/31 03:08:41;;;;;;;7.72;1.73;;;13.20;99.90;;;;;;4997597;28;20404;-72
2022/08/31 03:11:08;;;;;;;2.70;1.20;;;13.20;99.90;;;;;;5005480;28;20056;-72
2022/08/31 03:13:36;;;;;;;2.72;1.30;;;13.10;99.90;;;;;;5026417;28;20067;-73
2022/08/31 03:16:03;;;;;;;3.42;1.30;;;13.10;99.90;;;;;;5016345;28;20044;-73
2022/08/31 03:18:29;;;;;;;3.42;1.30;;;13.10;99.90;;;;;;5030945;28;20055;-74
2022/08/31 03:20:54;;;;;;;2.08;1.30;;;13.10;99.90;;;;;;5009579;28;20292;-72
2022/08/31 03:23:20;;;;;;;4.07;1.30;;;13.10;99.90;;;;;;5013144;28;20041;-73
2022/08/31 03:25:46;;;;;;;5.40;1.60;;;13.10;99.90;;;;;;5013248;28;20033;-72
2022/08/31 03:28:12;;;;;;;6.45;1.60;;;13.10;99.90;;;;;;5043962;28;20132;-73
2022/08/31 03:30:38;;;;;;;3.65;1.48;;;13.10;99.90;;;;;;5049152;28;20124;-72
2022/08/31 03:33:04;;;;;;;2.65;1.30;;;13.10;99.90;;;;;;5031209;28;20037;-73
2022/08/31 03:35:30;;;;;;;4.28;1.40;;;13.00;99.90;;;;;;5031309;28;20035;-73
2022/08/31 03:37:56;;;;;;;2.55;1.20;;;13.00;99.90;;;;;;5029645;28;20591;-73
2022/08/31 03:40:22;;;;;;;3.05;1.30;;;12.90;99.90;;;;;;5016862;28;20041;-72
2022/08/31 03:42:48;;;;;;;4.15;1.60;;;13.00;99.90;;;;;;5032849;28;20819;-73
2022/08/31 03:45:14;;;;;;;4.63;1.60;;;12.90;99.90;;;;;;5044066;28;20140;-74
2022/08/31 03:47:40;;;;;;;2.92;1.30;;;12.90;99.90;;;;;;5062066;28;20151;-72
2022/08/31 03:50:09;;;;;;;2.50;1.20;;;12.90;99.90;;;;;;5030750;28;20515;-72
2022/08/31 03:52:35;;;;;;;4.85;1.60;;;12.80;99.90;;;;;;5016008;28;20040;-73
2022/08/31 03:55:01;;;;;;;3.88;1.25;;;12.80;99.90;;;;;;5029164;28;20327;-73
2022/08/31 03:57:27;;;;;;;4.30;1.50;;;12.80;99.90;;;;;;5015670;28;20395;-72
2022/08/31 03:59:56;;;;;;;4.68;1.80;;;12.80;99.90;;;;;;5013967;28;20041;-73
2022/08/31 04:02:22;;;;;;;4.18;1.42;;;12.80;99.90;;;;;;4993315;28;20454;-72
2022/08/31 04:04:52;;;;;;;4.22;1.50;;;12.80;99.90;;;;;;5027249;28;20051;-73
2022/08/31 04:07:19;;;;;;;2.88;1.42;;;12.80;99.90;;;;;;4997272;28;20079;-73
2022/08/31 04:09:46;;;;;;;4.35;1.50;;;12.80;99.90;;;;;;5031779;28;20079;-72
2022/08/31 04:12:13;;;;;;;4.50;1.50;;;12.80;99.90;;;;;;5046187;28;20041;-72
2022/08/31 04:14:40;;;;;;;6.25;1.50;;;12.80;99.90;;;;;;5032016;28;20088;-71
2022/08/31 04:17:09;;;;;;;4.53;1.60;;;12.70;99.90;;;;;;5049619;28;20419;-73
2022/08/31 04:19:35;;;;;;;4.78;1.73;;;12.80;99.90;;;;;;5049435;28;20043;-73
2022/08/31 04:22:01;;;;;;;4.43;1.50;;;12.70;99.90;;;;;;5014987;28;20034;-72
2022/08/31 04:24:28;;;;;;;3.53;1.58;;;12.70;99.90;;;;;;5048431;28;20036;-72
2022/08/31 04:26:54;;;;;;;5.88;1.60;;;12.80;99.90;;;;;;5011445;28;20040;-73
2022/08/31 04:29:20;;;;;;;4.20;1.58;;;12.70;99.90;;;;;;5029354;28;20033;-74
2022/08/31 04:31:46;;;;;;;4.20;1.60;;;12.70;99.90;;;;;;5031994;28;20049;-74
2022/08/31 04:34:12;;;;;;;4.47;1.50;;;12.70;99.90;;;;;;5050586;28;20058;-73
2022/08/31 04:36:40;;;;;;;5.68;1.67;;;12.70;99.90;;;;;;5018981;28;20028;-74
2022/08/31 04:39:07;;;;;;;3.97;1.60;;;12.70;99.90;;;;;;5044764;28;20120;-73
2022/08/31 04:41:35;;;;;;;4.50;1.77;;;12.70;99.90;;;;;;5011957;28;20426;-73
2022/08/31 04:44:02;;;;;;;3.88;1.45;;;12.70;99.90;;;;;;5044267;28;20160;-73
2022/08/31 04:46:29;;;;;;;4.30;1.75;;;12.70;99.90;;;;;;5027142;28;20155;-74
2022/08/31 04:48:56;;;;;;;4.55;1.70;;;12.70;99.90;;;;;;5030841;28;20040;-72
2022/08/31 04:51:28;;;;;;;5.53;1.63;;;12.80;99.90;;;;;;5028080;28;20041;-73
2022/08/31 04:53:54;;;;;;;6.22;1.83;;;12.80;99.90;;;;;;5015214;28;20116;-73
2022/08/31 04:56:29;;;;;;;4.32;1.52;;;12.80;99.90;;;;;;5027215;28;20043;-74
2022/08/31 04:59:02;;;;;;;3.60;1.60;;;12.80;99.90;;;;;;5027929;28;20044;-73
2022/08/31 05:01:31;;;;;;;3.40;1.60;;;12.80;99.90;;;;;;5043658;28;20029;-73
2022/08/31 05:03:58;;;;;;;3.67;1.67;;;12.80;99.90;;;;;;5012023;28;20107;-72
2022/08/31 05:06:27;;;;;;;5.13;1.90;;;12.80;99.90;;;;;;5028138;28;20775;-73
2022/08/31 05:09:14;;;;;;;2.88;1.48;;;12.80;99.90;;;;;;5029881;28;20106;-73
2022/08/31 05:11:40;;;;;;;7.55;1.90;;;12.80;99.90;;;;;;5032629;28;20044;-72
2022/08/31 05:14:06;;;;;;;4.22;1.70;;;12.80;99.90;;;;;;5009212;28;20063;-72
2022/08/31 05:16:36;;;;;;;5.68;1.70;;;12.90;99.90;;;;;;5028640;28;20044;-74
2022/08/31 05:19:02;;;;;;;4.00;1.65;;;12.90;99.90;;;;;;5011997;28;20037;-73
2022/08/31 05:21:31;;;;;;;4.65;1.60;;;12.90;99.90;;;;;;5032458;28;20207;-72
2022/08/31 05:24:03;;;;;;;4.28;1.60;;;12.90;99.90;;;;;;5045395;28;20499;-74
2022/08/31 05:26:34;;;;;;;7.83;1.70;;;12.90;99.90;;;;;;5045845;28;20499;-72
2022/08/31 05:29:01;;;;;;;5.60;2.05;;;13.00;99.90;;;;;;5013839;28;20832;-74
2022/08/31 05:31:30;;;;;;;4.28;1.70;;;13.00;99.90;;;;;;5057839;28;20285;-73
2022/08/31 05:33:56;;;;;;;5.65;1.90;;;13.00;99.90;;;;;;4996047;28;20037;-73
2022/08/31 05:36:23;;;;;;;6.90;1.90;;;13.10;99.90;;;;;;4995601;28;20189;-74
2022/08/31 05:38:49;;;;;;;5.43;1.63;;;13.10;99.90;;;;;;5027931;28;20441;-73
2022/08/31 05:41:15;;;;;;;5.35;1.88;;;13.20;99.90;;;;;;5032011;28;20037;-74
2022/08/31 05:43:40;;;;;;;4.82;1.70;;;13.30;99.90;;;;;;5045782;28;20534;-73
2022/08/31 05:46:08;;;;;;;5.55;1.63;;;13.30;99.90;;;;;;4998296;28;20553;-73
2022/08/31 05:48:35;;;;;;;5.32;1.75;;;13.40;99.90;;;;;;5007558;28;20216;-73
2022/08/31 05:51:06;;;;;;;4.22;1.70;;;13.50;99.90;;;;;;5062468;28;20115;-73
2022/08/31 05:53:33;;;;;;;4.07;1.65;;;13.50;99.90;;;;;;5009918;28;20072;-72
2022/08/31 05:56:06;;;;;;;3.97;1.60;;;13.60;99.90;;;;;;5013823;28;20480;-73
2022/08/31 05:58:32;;;;;;;3.80;1.60;;;13.70;99.90;;;;;;5028303;28;20120;-74
2022/08/31 06:00:58;;;;;;;6.32;1.88;;;13.70;99.90;;;;;;5027146;28;20036;-73
2022/08/31 06:03:24;;;;;;;4.18;1.50;;;13.80;99.90;;;;;;5028247;28;20041;-73
2022/08/31 06:05:51;;;;;;;3.45;1.60;;;12.80;99.90;;;;;;5010983;28;20124;-73
2022/08/31 06:08:18;;;;;;;3.83;1.60;;;14.00;99.90;;;;;;5021003;28;20041;-73
2022/08/31 06:10:45;;;;;;;4.57;1.80;;;14.10;99.90;;;;;;5025085;28;20043;-73
2022/08/31 06:13:15;;;;;;;5.07;1.70;;;14.30;99.90;;;;;;5026871;28;20041;-72
2022/08/31 06:15:42;;;;;;;3.80;1.60;;;14.40;99.90;;;;;;5022274;28;20048;-71
2022/08/31 06:18:09;;;;;;;4.30;1.60;;;14.50;99.90;;;;;;5019187;28;20036;-73
2022/08/31 06:20:38;;;;;;;4.13;1.42;;;14.60;99.90;;;;;;5046528;28;20044;-75
2022/08/31 06:23:06;;;;;;;4.63;1.75;;;14.70;99.90;;;;;;5037038;28;20083;-74
2022/08/31 06:25:32;;;;;;;3.85;1.50;;;14.80;99.90;;;;;;5014193;28;20499;-72
2022/08/31 06:27:58;;;;;;;3.38;1.55;;;14.60;99.90;;;;;;5037240;28;20060;-72
2022/08/31 06:30:26;;;;;;;4.60;1.70;;;15.10;99.90;;;;;;5012635;28;20045;-74
2022/08/31 06:32:53;;;;;;;3.75;1.60;;;15.10;99.90;;;;;;5019368;28;20119;-72
2022/08/31 06:35:19;;;;;;;4.80;1.63;;;14.40;99.90;;;;;;5063015;28;20542;-74
2022/08/31 06:37:44;;;;;;;3.65;1.63;;;15.40;99.90;;;;;;5045890;28;20124;-73
2022/08/31 06:40:10;;;;;;;3.95;1.80;;;15.50;99.90;;;;;;5014186;28;20039;-73
2022/08/31 06:42:36;;;;;;;4.57;1.80;;;15.70;99.90;;;;;;5010002;28;20086;-73
2022/08/31 06:45:04;;;;;;;4.72;1.70;;;15.80;99.90;;;;;;5010840;28;20053;-71
2022/08/31 06:47:30;;;;;;;4.32;1.60;;;15.90;99.90;;;;;;5065991;28;20056;-73
2022/08/31 06:49:58;;;;;;;3.58;1.52;;;15.90;99.90;;;;;;5032336;28;20148;-71
2022/08/31 06:52:24;;;;;;;3.65;1.48;;;16.10;99.90;;;;;;5030947;28;20518;-73
2022/08/31 06:54:51;;;;;;;4.80;1.50;;;16.20;99.90;;;;;;5028612;28;20051;-72
2022/08/31 06:57:17;;;;;;;4.03;1.60;;;16.30;99.90;;;;;;5029316;28;20060;-76
2022/08/31 06:59:43;;;;;;;5.55;1.50;;;16.40;99.90;;;;;;5033921;28;20433;-73
2022/08/31 07:02:09;;;;;;;4.63;1.52;;;16.40;99.90;;;;;;5047868;28;20040;-73
2022/08/31 07:04:37;;;;;;;2.95;1.30;;;16.50;99.90;;;;;;5050686;28;20052;-73
2022/08/31 07:07:05;;;;;;;3.67;1.50;;;16.60;99.90;;;;;;5067187;28;20090;-74
2022/08/31 07:09:32;;;;;;;3.33;1.20;;;16.70;99.90;;;;;;5022980;28;20102;-74
2022/08/31 07:11:58;;;;;;;3.30;1.25;;;16.80;99.90;;;;;;5027333;28;20442;-72
2022/08/31 07:14:25;;;;;;;2.95;1.10;;;16.90;99.90;;;;;;5044678;28;20029;-73
2022/08/31 07:16:53;;;;;;;3.80;1.10;;;17.00;99.90;;;;;;5024742;28;20036;-72
2022/08/31 07:19:20;;;;;;;4.15;1.17;;;17.10;99.90;;;;;;5025364;28;20049;-74
2022/08/31 07:21:49;;;;;;;3.45;1.10;;;17.20;99.90;;;;;;5037566;28;20383;-74
2022/08/31 07:24:21;;;;;;;1.35;0.75;;;17.30;99.90;;;;;;5032907;28;20490;-72
2022/08/31 07:26:51;;;;;;;2.33;1.20;;;17.30;99.90;;;;;;5029969;28;20497;-73
2022/08/31 07:29:19;;;;;;;1.67;0.88;;;17.40;99.90;;;;;;5043420;28;20044;-73
2022/08/31 07:31:49;;;;;;;2.00;0.95;;;17.50;99.90;;;;;;5041831;28;20055;-75
2022/08/31 07:34:24;;;;;;;4.05;1.30;;;17.50;99.90;;;;;;5021869;28;20068;-74
2022/08/31 07:42:25;;;;;;;5.53;1.23;;;17.70;99.90;;;;;;5000022;28;20045;-74
2022/08/31 07:44:52;;;;;;;1.85;1.00;;;17.80;99.90;;;;;;5050025;28;20049;-73
2022/08/31 07:47:21;;;;;;;3.08;1.20;;;17.90;99.90;;;;;;5035979;28;20549;-74
2022/08/31 07:49:51;;;;;;;3.45;1.13;;;18.00;99.90;;;;;;5033541;28;20157;-72
2022/08/31 07:52:22;;;;;;;2.63;1.15;;;18.10;99.90;;;;;;5038928;28;20049;-73
2022/08/31 07:54:50;;;;;;;4.45;1.10;;;18.20;99.90;;;;;;5020549;28;20091;-73
2022/08/31 07:57:17;;;;;;;4.28;1.30;;;18.30;99.90;;;;;;5018359;28;20403;-74
2022/08/31 07:59:45;;;;;;;3.80;1.02;;;18.00;99.90;;;;;;4988138;28;20543;-74
2022/08/31 08:02:12;;;;;;;2.17;1.02;;;18.40;99.90;;;;;;5013119;28;20260;-72
2022/08/31 08:04:39;;;;;;;2.22;1.00;;;18.50;99.90;;;;;;5015702;28;20064;-75
2022/08/31 08:07:06;;;;;;;1.67;1.08;;;18.50;99.90;;;;;;5031627;28;20033;-73
2022/08/31 08:09:32;;;;;;;3.00;1.08;;;18.50;99.90;;;;;;5000575;28;20048;-73
2022/08/31 08:12:05;;;;;;;2.28;1.00;;;18.60;99.90;;;;;;5036607;28;20295;-73
2022/08/31 08:14:38;;;;;;;2.40;1.15;;;18.60;99.90;;;;;;5030470;28;20033;-74
2022/08/31 08:17:06;;;;;;;3.33;1.20;;;18.70;99.90;;;;;;5025131;28;20049;-74
2022/08/31 08:19:33;;;;;;;3.20;1.35;;;17.70;99.90;;;;;;5000864;28;20065;-73
2022/08/31 08:22:01;;;;;;;4.00;1.20;;;18.80;99.90;;;;;;5042298;28;20172;-74
2022/08/31 08:24:28;;;;;;;3.22;1.33;;;18.80;99.90;;;;;;4988289;28;20037;-74
2022/08/31 08:26:57;;;;;;;3.28;1.50;;;20.20;99.90;;;;;;5011246;28;20083;-74
2022/08/31 08:29:23;;;;;;;2.70;1.20;;;18.80;99.90;;;;;;5039550;28;20037;-73
2022/08/31 08:31:53;;;;;;;3.70;1.17;;;18.90;99.90;;;;;;5027007;28;20055;-74
2022/08/31 08:34:23;;;;;;;5.75;1.42;;;18.90;99.90;;;;;;5037309;28;20071;-74
2022/08/31 08:36:49;;;;;;;4.30;1.33;;;19.00;99.90;;;;;;5006072;28;20104;-72
2022/08/31 08:39:18;;;;;;;1.95;1.00;;;19.00;99.90;;;;;;5020548;28;20034;-72
2022/08/31 08:41:46;;;;;;;2.55;1.10;;;19.10;99.90;;;;;;5030212;28;20116;-74
2022/08/31 08:44:15;;;;;;;3.05;1.05;;;19.40;99.90;;;;;;5031484;28;20065;-73
2022/08/31 08:46:46;;;;;;;2.65;1.25;;;19.20;99.90;;;;;;5044239;28;20130;-73
2022/08/31 08:49:27;;;;;;;2.95;1.20;;;19.30;99.90;;;;;;5023134;28;20044;-73
2022/08/31 08:52:02;;;;;;;4.18;1.42;;;19.40;99.90;;;;;;5038534;28;20044;-74
2022/08/31 08:54:39;;;;;;;2.85;1.10;;;19.40;99.90;;;;;;5046330;28;20571;-75
2022/08/31 08:57:12;;;;;;;3.42;1.08;;;19.40;99.90;;;;;;5027326;28;20527;-73
2022/08/31 08:59:43;;;;;;;6.65;1.17;;;19.60;99.90;;;;;;5027226;28;20120;-72
2022/08/31 09:02:24;;;;;;;5.15;1.25;;;19.70;99.90;;;;;;5030457;28;20568;-75
2022/08/31 09:04:58;;;;;;;2.55;1.13;;;19.70;99.90;;;;;;5010554;28;20094;-73
2022/08/31 09:08:03;;;;;;;2.83;1.20;;;19.80;99.90;;;;;;5012032;28;20043;-72
2022/08/31 09:10:34;;;;;;;6.50;1.38;;;19.80;99.90;;;;;;5037400;28;20116;-73
2022/08/31 09:13:21;;;;;;;4.07;1.20;;;19.80;99.90;;;;;;5008764;28;20468;-73
2022/08/31 09:15:56;;;;;;;2.30;1.02;;;19.90;99.90;;;;;;5039971;28;20052;-74
2022/08/31 09:18:53;;;;;;;3.55;1.25;;;19.90;99.90;;;;;;5027965;28;20045;-72
2022/08/31 09:21:33;;;;;;;4.13;1.30;;;20.00;99.90;;;;;;5023476;28;20083;-72
2022/08/31 09:24:20;;;;;;;2.35;1.30;;;20.00;99.90;;;;;;5060103;28;20052;-76
2022/08/31 09:27:19;;;;;;;2.47;1.00;;;20.10;99.90;;;;;;5028630;28;20041;-74
2022/08/31 09:29:45;;;;;;;7.05;1.50;;;20.30;99.90;;;;;;5027633;28;20071;-73
2022/08/31 09:32:21;;;;;;;2.97;1.40;;;20.20;99.90;;;;;;5069348;28;20593;-72
2022/08/31 09:35:02;;;;;;;1.90;1.00;;;20.30;99.90;;;;;;5026083;28;20487;-74
2022/08/31 09:37:39;;;;;;;2.17;1.05;;;20.10;99.90;;;;;;5034532;28;20068;-73
2022/08/31 09:40:38;;;;;;;6.38;1.33;;;20.10;99.90;;;;;;5048297;28;20053;-74
2022/08/31 09:43:23;;;;;;;2.38;1.15;;;20.20;99.90;;;;;;5044416;28;20044;-72
2022/08/31 09:46:01;;;;;;;3.30;1.20;;;20.20;99.90;;;;;;5044299;28;20074;-74
2022/08/31 09:48:44;;;;;;;3.53;1.30;;;20.40;99.90;;;;;;5065043;28;20083;-72
2022/08/31 09:51:29;;;;;;;5.45;1.35;;;20.60;99.90;;;;;;5058753;28;20410;-72
2022/08/31 09:56:57;;;;;;;5.53;1.15;;;20.60;99.90;;;;;;5045938;28;20071;-74
2022/08/31 09:59:42;;;;;;;4.78;1.25;;;20.60;99.90;;;;;;5030363;28;20048;-74
2022/08/31 10:02:32;;;;;;;1.73;0.95;;;20.70;99.90;;;;;;5032507;28;20056;-73
2022/08/31 10:05:05;;;;;;;4.70;1.30;;;20.70;99.90;;;;;;5050240;28;20044;-74
2022/08/31 10:07:43;;;;;;;2.85;1.10;;;20.80;99.90;;;;;;5049731;28;20480;-74
2022/08/31 10:10:33;;;;;;;4.03;1.23;;;21.00;99.90;;;;;;5036425;28;20040;-74
2022/08/31 10:13:17;;;;;;;2.17;1.10;;;21.30;99.90;;;;;;5034701;28;20041;-74
2022/08/31 10:15:57;;;;;;;3.47;1.40;;;21.10;99.90;;;;;;5050171;28;20040;-74
2022/08/31 10:18:55;;;;;;;3.83;1.30;;;21.10;99.90;;;;;;5046524;28;20454;-74
2022/08/31 10:21:50;;;;;;;4.38;1.38;;;21.10;99.90;;;;;;5021329;28;20526;-74
2022/08/31 10:24:45;;;;;;;2.35;0.95;;;21.30;99.90;;;;;;5033459;28;20051;-73
2022/08/31 10:27:19;;;;;;;4.30;1.40;;;21.50;99.90;;;;;;5043322;28;20057;-74
2022/08/31 10:30:04;;;;;;;4.95;1.35;;;21.50;99.90;;;;;;5043044;28;20041;-74
2022/08/31 10:32:52;;;;;;;2.45;1.13;;;21.60;99.90;;;;;;5065719;28;20072;-74
2022/08/31 10:35:36;;;;;;;4.40;1.17;;;21.80;99.90;;;;;;5018344;28;20040;-76
2022/08/31 10:38:33;;;;;;;2.78;1.10;;;21.80;99.90;;;;;;5014974;28;20041;-74
2022/08/31 10:41:16;;;;;;;3.72;1.13;;;22.00;99.90;;;;;;5045084;28;20040;-74
2022/08/31 10:43:52;;;;;;;3.22;1.08;;;22.20;99.90;;;;;;5063920;28;20119;-73
2022/08/31 10:46:18;;;;;;;1.75;0.88;;;22.20;99.90;;;;;;5032815;28;20122;-73
2022/08/31 10:48:53;;;;;;;1.40;0.90;;;22.10;99.90;;;;;;5016133;28;20127;-74
2022/08/31 10:51:49;;;;;;;3.42;1.02;;;21.90;99.90;;;;;;5015377;28;20120;-74
2022/08/31 10:54:56;;;;;;;2.40;0.85;;;21.50;99.90;;;;;;5022328;28;20122;-73
2022/08/31 10:58:04;;;;;;;3.08;1.23;;;21.40;99.90;;;;;;5049620;28;20108;-74
2022/08/31 11:00:47;;;;;;;2.40;0.85;;;21.50;99.90;;;;;;5016115;28;20064;-74
2022/08/31 11:03:35;;;;;;;2.63;1.08;;;21.60;99.90;;;;;;5031520;28;20120;-74
2022/08/31 11:06:13;;;;;;;3.83;1.08;;;21.70;99.90;;;;;;5033446;28;20084;-72
2022/08/31 11:09:14;;;;;;;3.38;0.98;;;21.80;99.90;;;;;;5032074;28;20045;-75
2022/08/31 11:12:05;;;;;;;4.25;1.00;;;21.90;99.90;;;;;;5043205;28;20040;-74
2022/08/31 11:15:08;;;;;;;3.00;0.90;;;21.90;99.90;;;;;;5050500;28;20049;-75
2022/08/31 11:18:00;;;;;;;4.72;0.90;;;21.90;99.90;;;;;;5033998;28;20037;-73
2022/08/31 11:20:53;;;;;;;3.08;1.00;;;22.00;99.90;;;;;;5048199;28;20395;-73
2022/08/31 11:23:52;;;;;;;3.25;0.80;;;22.00;99.90;;;;;;5030440;28;20041;-74
2022/08/31 11:26:44;;;;;;;1.33;0.70;;;22.00;99.90;;;;;;5050578;28;20037;-74
2022/08/31 11:29:29;;;;;;;2.83;1.08;;;21.90;99.90;;;;;;5014974;28;20083;-73
2022/08/31 11:32:04;;;;;;;2.35;0.70;;;21.80;99.90;;;;;;5030041;28;20029;-74
2022/08/31 11:34:45;;;;;;;1.60;0.90;;;21.80;99.90;;;;;;5065462;28;20037;-74
2022/08/31 11:37:32;;;;;;;2.10;0.77;;;21.90;99.90;;;;;;5017710;28;20090;-75
2022/08/31 11:39:58;;;;;;;2.95;0.98;;;21.80;99.90;;;;;;5015614;28;20033;-77
2022/08/31 11:42:27;;;;;;;5.57;1.20;;;21.60;99.90;;;;;;5014349;28;20077;-74
2022/08/31 11:45:05;;;;;;;3.92;1.02;;;21.80;99.90;;;;;;5031705;28;20492;-74
2022/08/31 11:47:34;;;;;;;2.83;1.20;;;21.90;99.90;;;;;;5030745;28;20079;-74
2022/08/31 11:50:23;;;;;;;2.47;0.82;;;21.90;99.90;;;;;;5060284;28;20045;-74
2022/08/31 11:52:52;;;;;;;4.60;1.02;;;22.00;99.90;;;;;;4995507;28;20110;-74
2022/08/31 11:55:44;;;;;;;3.00;1.05;;;22.00;99.90;;;;;;5026212;28;20128;-74
2022/08/31 11:58:14;;;;;;;3.90;1.23;;;22.10;99.90;;;;;;5047577;28;20036;-74
2022/08/31 12:00:48;;;;;;;2.30;0.95;;;22.10;99.90;;;;;;5070877;28;20131;-74
2022/08/31 12:03:32;;;;;;;4.80;1.10;;;22.10;99.90;;;;;;5065530;28;20040;-74
2022/08/31 12:05:58;;;;;;;4.05;1.05;;;22.10;99.90;;;;;;5070762;28;20102;-72
2022/08/31 12:08:48;;;;;;;4.35;0.90;;;22.20;99.90;;;;;;5046081;28;20499;-73
2022/08/31 12:11:20;;;;;;;2.67;0.90;;;22.20;99.90;;;;;;5044800;28;20029;-74
2022/08/31 12:14:00;;;;;;;2.95;1.00;;;22.10;99.90;;;;;;5055934;28;20040;-74
2022/08/31 12:16:56;;;;;;;5.93;1.30;;;22.10;99.90;;;;;;5026763;28;20563;-74
2022/08/31 12:20:00;;;;;;;3.13;1.10;;;22.10;99.90;;;;;;5078361;28;20040;-74
2022/08/31 12:25:28;;;;;;;2.58;1.00;;;21.70;99.90;;;;;;5039601;28;20045;-73
2022/08/31 12:28:22;;;;;;;3.65;0.98;;;22.40;99.90;;;;;;5048158;28;20120;-74
2022/08/31 12:30:53;;;;;;;4.25;1.23;;;22.30;99.90;;;;;;5031705;28;20527;-73
2022/08/31 12:33:26;;;;;;;2.97;0.80;;;22.40;99.90;;;;;;5013288;28;20080;-73
2022/08/31 12:36:14;;;;;;;1.08;0.80;;;22.40;99.90;;;;;;5046928;28;20358;-74
2022/08/31 12:38:40;;;;;;;3.20;1.00;;;22.40;99.90;;;;;;5048831;28;20032;-74
2022/08/31 12:41:10;;;;;;;2.85;0.98;;;22.40;99.90;;;;;;5018079;28;20041;-74
2022/08/31 12:43:45;;;;;;;1.63;0.95;;;22.40;99.90;;;;;;5063597;28;20499;-74
2022/08/31 12:46:38;;;;;;;2.75;0.90;;;22.50;99.90;;;;;;5010103;28;20499;-74
2022/08/31 12:49:10;;;;;;;2.45;1.00;;;22.50;99.90;;;;;;5033298;28;20055;-75
2022/08/31 12:51:38;;;;;;;2.10;0.90;;;22.60;99.90;;;;;;5027732;28;20033;-72
2022/08/31 12:54:16;;;;;;;3.05;0.95;;;22.60;99.90;;;;;;5024773;28;20495;-74
2022/08/31 12:56:56;;;;;;;2.33;0.88;;;22.80;99.90;;;;;;5024032;28;20045;-74
2022/08/31 12:59:30;;;;;;;3.42;0.95;;;22.80;99.90;;;;;;5003891;28;20113;-74
2022/08/31 13:01:58;;;;;;;1.45;0.90;;;22.80;99.90;;;;;;5026886;28;20099;-73
2022/08/31 13:04:28;;;;;;;2.70;0.95;;;22.80;99.90;;;;;;5024995;28;20495;-76
2022/08/31 13:06:54;;;;;;;4.18;1.00;;;22.90;99.90;;;;;;5043567;28;20091;-73
2022/08/31 13:09:28;;;;;;;3.70;1.17;;;22.90;99.90;;;;;;5026923;28;20400;-73
2022/08/31 13:11:57;;;;;;;8.10;1.10;;;22.90;99.90;;;;;;5060313;28;20053;-76
2022/08/31 13:14:26;;;;;;;4.93;1.02;;;22.90;99.90;;;;;;5034686;28;20431;-75
2022/08/31 13:16:58;;;;;;;4.93;1.08;;;22.90;99.90;;;;;;5031525;28;20032;-75
2022/08/31 13:19:28;;;;;;;1.95;0.85;;;22.90;99.90;;;;;;5030118;28;20041;-74
2022/08/31 13:21:57;;;;;;;2.67;1.00;;;22.90;99.90;;;;;;5046231;28;20095;-74
2022/08/31 13:24:32;;;;;;;2.42;1.05;;;22.80;99.90;;;;;;5013895;28;20441;-72
2022/08/31 13:27:10;;;;;;;3.65;1.05;;;22.60;99.90;;;;;;5060124;28;20103;-75